DLH1825 EDDF-EDDH
Flight info
| Callsign | DLH1825 |
|---|---|
| Flight time | N/A |
| Altitude | 33000 |
| Route | MARUN3W/25C MARUN Y150 TOLGI DCT SAS/N0444F320 P605 NOLGO NOLGO6A |
| Aircraft | A320/M-SDE3FGHIRWY/LB1 |
Departure
| Time | 2026-05-06 16:48 |
|---|---|
| Airport | Frankfurt Main Airport (EDDF) |
Arrival
| Time | N/A |
|---|---|
| Airport | Hamburg Helmut Schmidt Airport (EDDH) |
| Time | Latitude | Longitude | Altitude | Speed | Heading |
|---|---|---|---|---|---|
| 2026-05-06 16:06 | 50.04431 | 8.56329 | 361 ft | 0 kts | 167° |
| 2026-05-06 16:30 | 50.04449 | 8.56323 | 363 ft | 4 kts | 169° |
| 2026-05-06 16:30 | 50.04475 | 8.56317 | 361 ft | 4 kts | 181° |
| 2026-05-06 16:31 | 50.04500 | 8.56325 | 358 ft | 4 kts | 229° |
| 2026-05-06 16:31 | 50.04505 | 8.56336 | 365 ft | 0 kts | 249° |
| 2026-05-06 16:36 | 50.04503 | 8.56330 | 365 ft | 4 kts | 250° |
| 2026-05-06 16:36 | 50.04497 | 8.56303 | 356 ft | 2 kts | 250° |
| 2026-05-06 16:36 | 50.04493 | 8.56287 | 360 ft | 2 kts | 250° |
| 2026-05-06 16:36 | 50.04483 | 8.56246 | 364 ft | 7 kts | 250° |
| 2026-05-06 16:37 | 50.04463 | 8.56161 | 359 ft | 8 kts | 250° |
| 2026-05-06 16:37 | 50.04443 | 8.56077 | 357 ft | 10 kts | 246° |
| 2026-05-06 16:37 | 50.04409 | 8.56030 | 359 ft | 4 kts | 205° |
| 2026-05-06 16:37 | 50.04386 | 8.56031 | 356 ft | 5 kts | 168° |
| 2026-05-06 16:38 | 50.04320 | 8.56068 | 357 ft | 7 kts | 158° |
| 2026-05-06 16:38 | 50.04293 | 8.56118 | 359 ft | 6 kts | 111° |
| 2026-05-06 16:38 | 50.04269 | 8.56188 | 361 ft | 9 kts | 146° |
| 2026-05-06 16:38 | 50.04211 | 8.56222 | 356 ft | 8 kts | 160° |
| 2026-05-06 16:39 | 50.04160 | 8.56252 | 358 ft | 7 kts | 161° |
| 2026-05-06 16:39 | 50.04136 | 8.56307 | 357 ft | 6 kts | 94° |
| 2026-05-06 16:39 | 50.04145 | 8.56357 | 359 ft | 4 kts | 69° |
| 2026-05-06 16:39 | 50.04151 | 8.56380 | 355 ft | 1 kts | 68° |
| 2026-05-06 16:40 | 50.04159 | 8.56411 | 358 ft | 7 kts | 69° |
| 2026-05-06 16:40 | 50.04187 | 8.56529 | 359 ft | 16 kts | 70° |
| 2026-05-06 16:40 | 50.04221 | 8.56673 | 363 ft | 9 kts | 70° |
| 2026-05-06 16:40 | 50.04239 | 8.56750 | 358 ft | 6 kts | 70° |
| 2026-05-06 16:41 | 50.04251 | 8.56797 | 359 ft | 5 kts | 70° |
| 2026-05-06 16:41 | 50.04273 | 8.56890 | 363 ft | 14 kts | 69° |
| 2026-05-06 16:41 | 50.04307 | 8.57031 | 362 ft | 11 kts | 70° |
| 2026-05-06 16:41 | 50.04328 | 8.57121 | 361 ft | 7 kts | 70° |
| 2026-05-06 16:42 | 50.04344 | 8.57189 | 363 ft | 6 kts | 69° |
| 2026-05-06 16:42 | 50.04357 | 8.57242 | 365 ft | 5 kts | 70° |
| 2026-05-06 16:42 | 50.04379 | 8.57337 | 361 ft | 13 kts | 70° |
| 2026-05-06 16:42 | 50.04411 | 8.57472 | 361 ft | 15 kts | 70° |
| 2026-05-06 16:43 | 50.04449 | 8.57627 | 366 ft | 14 kts | 69° |
| 2026-05-06 16:43 | 50.04480 | 8.57758 | 366 ft | 12 kts | 70° |
| 2026-05-06 16:43 | 50.04507 | 8.57871 | 365 ft | 10 kts | 69° |
| 2026-05-06 16:43 | 50.04530 | 8.57966 | 368 ft | 9 kts | 70° |
| 2026-05-06 16:44 | 50.04556 | 8.58075 | 364 ft | 13 kts | 70° |
| 2026-05-06 16:44 | 50.04584 | 8.58193 | 369 ft | 9 kts | 70° |
| 2026-05-06 16:44 | 50.04600 | 8.58263 | 371 ft | 7 kts | 70° |
| 2026-05-06 16:44 | 50.04626 | 8.58359 | 369 ft | 13 kts | 57° |
| 2026-05-06 16:45 | 50.04653 | 8.58478 | 369 ft | 8 kts | 74° |
| 2026-05-06 16:45 | 50.04642 | 8.58523 | 372 ft | 4 kts | 134° |
| 2026-05-06 16:45 | 50.04599 | 8.58587 | 369 ft | 7 kts | 158° |
| 2026-05-06 16:45 | 50.04564 | 8.58609 | 372 ft | 4 kts | 158° |
| 2026-05-06 16:46 | 50.04549 | 8.58618 | 371 ft | 3 kts | 158° |
| 2026-05-06 16:46 | 50.04523 | 8.58635 | 371 ft | 4 kts | 158° |
| 2026-05-06 16:46 | 50.04503 | 8.58632 | 371 ft | 4 kts | 204° |
| 2026-05-06 16:46 | 50.04485 | 8.58580 | 370 ft | 7 kts | 252° |
| 2026-05-06 16:47 | 50.04468 | 8.58510 | 370 ft | 9 kts | 249° |
| 2026-05-06 16:47 | 50.04379 | 8.58131 | 370 ft | 75 kts | 250° |
| 2026-05-06 16:47 | 50.04111 | 8.57008 | 363 ft | 139 kts | 249° |
| 2026-05-06 16:47 | 50.03724 | 8.55402 | 519 ft | 169 kts | 250° |
| 2026-05-06 16:48 | 50.03317 | 8.53682 | 1169 ft | 170 kts | 250° |
| 2026-05-06 16:48 | 50.02888 | 8.51943 | 1840 ft | 174 kts | 249° |
| 2026-05-06 16:48 | 50.02377 | 8.50206 | 2302 ft | 188 kts | 236° |
| 2026-05-06 16:48 | 50.01401 | 8.48726 | 2658 ft | 206 kts | 211° |
| 2026-05-06 16:49 | 50.00035 | 8.47983 | 3363 ft | 210 kts | 188° |
| 2026-05-06 16:49 | 49.98582 | 8.47655 | 4148 ft | 212 kts | 188° |
| 2026-05-06 16:49 | 49.97110 | 8.47327 | 4926 ft | 214 kts | 188° |
| 2026-05-06 16:49 | 49.95644 | 8.46887 | 5612 ft | 221 kts | 197° |
| 2026-05-06 16:50 | 49.94084 | 8.46177 | 5993 ft | 243 kts | 197° |
| 2026-05-06 16:50 | 49.92465 | 8.45308 | 6666 ft | 251 kts | 210° |
| 2026-05-06 16:50 | 49.91179 | 8.43482 | 7434 ft | 255 kts | 239° |
| 2026-05-06 16:50 | 49.90711 | 8.41785 | 7970 ft | 257 kts | 258° |
| 2026-05-06 16:51 | 49.90963 | 8.38177 | 9016 ft | 261 kts | 297° |
| 2026-05-06 16:51 | 49.92138 | 8.36041 | 9777 ft | 264 kts | 327° |
| 2026-05-06 16:51 | 49.93832 | 8.34732 | 10213 ft | 283 kts | 336° |
| 2026-05-06 16:51 | 49.95717 | 8.33490 | 10472 ft | 307 kts | 337° |
| 2026-05-06 16:52 | 49.97764 | 8.32182 | 10703 ft | 330 kts | 338° |
| 2026-05-06 16:52 | 49.99950 | 8.30795 | 11119 ft | 345 kts | 338° |
| 2026-05-06 16:52 | 50.02219 | 8.29513 | 11757 ft | 350 kts | 345° |
| 2026-05-06 16:52 | 50.04640 | 8.28943 | 12443 ft | 355 kts | 358° |
| 2026-05-06 16:53 | 50.07113 | 8.29192 | 13113 ft | 359 kts | 10° |
| 2026-05-06 16:53 | 50.09534 | 8.30230 | 13778 ft | 363 kts | 18° |
| 2026-05-06 16:53 | 50.11936 | 8.31490 | 14436 ft | 366 kts | 18° |
| 2026-05-06 16:53 | 50.13540 | 8.32332 | 14847 ft | 369 kts | 18° |
| 2026-05-06 16:54 | 50.15980 | 8.33612 | 15486 ft | 372 kts | 18° |
| 2026-05-06 16:54 | 50.18451 | 8.34905 | 16100 ft | 376 kts | 18° |
| 2026-05-06 16:54 | 50.21792 | 8.36657 | 16885 ft | 381 kts | 18° |
| 2026-05-06 16:54 | 50.24311 | 8.37984 | 17458 ft | 384 kts | 18° |
| 2026-05-06 16:55 | 50.26852 | 8.39325 | 18015 ft | 387 kts | 18° |
| 2026-05-06 16:55 | 50.29390 | 8.40665 | 18531 ft | 391 kts | 18° |
| 2026-05-06 16:55 | 50.31968 | 8.42043 | 19065 ft | 394 kts | 19° |
| 2026-05-06 16:55 | 50.34565 | 8.43457 | 19599 ft | 396 kts | 19° |
| 2026-05-06 16:56 | 50.37176 | 8.44890 | 20111 ft | 399 kts | 19° |
| 2026-05-06 16:56 | 50.39806 | 8.46334 | 20617 ft | 402 kts | 19° |
| 2026-05-06 16:56 | 50.42455 | 8.47787 | 21092 ft | 405 kts | 19° |
| 2026-05-06 16:56 | 50.44259 | 8.48776 | 21409 ft | 407 kts | 19° |
| 2026-05-06 16:57 | 50.47814 | 8.50723 | 22012 ft | 411 kts | 18° |
| 2026-05-06 16:57 | 50.49644 | 8.51676 | 22312 ft | 412 kts | 18° |
| 2026-05-06 16:57 | 50.52397 | 8.53026 | 22745 ft | 415 kts | 17° |
| 2026-05-06 16:57 | 50.55173 | 8.54325 | 23166 ft | 418 kts | 16° |
| 2026-05-06 16:58 | 50.57972 | 8.55613 | 23592 ft | 420 kts | 16° |
| 2026-05-06 16:58 | 50.60777 | 8.56912 | 24005 ft | 423 kts | 16° |
| 2026-05-06 16:58 | 50.63608 | 8.58242 | 24398 ft | 425 kts | 16° |
| 2026-05-06 16:58 | 50.66455 | 8.59600 | 24774 ft | 428 kts | 17° |
| 2026-05-06 16:59 | 50.69310 | 8.60976 | 25145 ft | 430 kts | 17° |
| 2026-05-06 16:59 | 50.72137 | 8.62345 | 25511 ft | 432 kts | 17° |
| 2026-05-06 16:59 | 50.75010 | 8.63739 | 25859 ft | 435 kts | 17° |
| 2026-05-06 16:59 | 50.77893 | 8.65224 | 26202 ft | 437 kts | 21° |
| 2026-05-06 17:00 | 50.80626 | 8.67369 | 26540 ft | 440 kts | 32° |
| 2026-05-06 17:00 | 50.83099 | 8.70233 | 26868 ft | 442 kts | 41° |
| 2026-05-06 17:00 | 50.85255 | 8.73735 | 27190 ft | 445 kts | 51° |
| 2026-05-06 17:00 | 50.87143 | 8.77623 | 27513 ft | 447 kts | 52° |
| 2026-05-06 17:01 | 50.89030 | 8.81555 | 27829 ft | 449 kts | 52° |
| 2026-05-06 17:01 | 50.90919 | 8.85500 | 28130 ft | 451 kts | 53° |
| 2026-05-06 17:01 | 50.92817 | 8.89476 | 28424 ft | 453 kts | 53° |
| 2026-05-06 17:01 | 50.94723 | 8.93477 | 28704 ft | 455 kts | 53° |
| 2026-05-06 17:02 | 50.96636 | 8.97495 | 28980 ft | 457 kts | 53° |
| 2026-05-06 17:02 | 50.98555 | 9.01526 | 29247 ft | 459 kts | 53° |
| 2026-05-06 17:02 | 51.00487 | 9.05589 | 29492 ft | 462 kts | 53° |
| 2026-05-06 17:02 | 51.02429 | 9.09683 | 29735 ft | 464 kts | 53° |
| 2026-05-06 17:03 | 51.04369 | 9.13784 | 29976 ft | 466 kts | 53° |
| 2026-05-06 17:03 | 51.06315 | 9.17908 | 30354 ft | 464 kts | 53° |
| 2026-05-06 17:03 | 51.08351 | 9.21863 | 30739 ft | 463 kts | 45° |
| 2026-05-06 17:03 | 51.10757 | 9.25248 | 31080 ft | 461 kts | 36° |
| 2026-05-06 17:04 | 51.13478 | 9.27933 | 31426 ft | 460 kts | 26° |
| 2026-05-06 17:04 | 51.16437 | 9.29861 | 31750 ft | 459 kts | 17° |
| 2026-05-06 17:04 | 51.19535 | 9.31062 | 32077 ft | 458 kts | 12° |
| 2026-05-06 17:04 | 51.22643 | 9.32128 | 32396 ft | 457 kts | 12° |
| 2026-05-06 17:05 | 51.25754 | 9.33204 | 32695 ft | 457 kts | 12° |
| 2026-05-06 17:05 | 51.28869 | 9.34288 | 32945 ft | 458 kts | 12° |
| 2026-05-06 17:05 | 51.31978 | 9.35371 | 33008 ft | 457 kts | 12° |
| 2026-05-06 17:06 | 51.38134 | 9.37523 | 33009 ft | 455 kts | 12° |
| 2026-05-06 17:06 | 51.44320 | 9.39687 | 33009 ft | 454 kts | 12° |
| 2026-05-06 17:07 | 51.50187 | 9.41736 | 33009 ft | 454 kts | 12° |